Angelo Coast Range Reserve, California Weather observations

Data are for 10 minute period ending at time listed.
 Day   Time   Solar   Ave.   Ave.  Ave.  Vector  Max.   Baro.   Total    
  of    of     Rad.   Air    Rel.  Wind   Wind   Wind  Press.  Precip.   
Year   Day            Temp.  Hum.  Speed  Dir.   Gust                    
2017   (PST)  Kw/m2    F      %     mph   deg.    mph    mb.     in.     
-------------------------------------------------------------------------
  54    9:10   0.03   30.4    99    1.3    54     2.0   973.0    0.00 
  54    9:20   0.03   30.6    99    2.1    78     3.3   973.0    0.00 
  54    9:30   0.06   31.3    99    0.1   113     0.9   973.1    0.00 
  54    9:40   0.11   32.1    99    0.0     0     0.0   973.1    0.00 
  54    9:50   0.43   33.4    98    1.2   100     2.0   973.2    0.00 
  54   10:00   0.50   35.0    94    1.5    93     1.9   973.3    0.00 
  54   10:10   0.53   35.6    91    1.7    92     2.2   973.3    0.00 
  54   10:20   0.55   36.1    90    1.6   103     2.4   973.4    0.00 
  54   10:30   0.57   36.6    90    2.0   103     2.4   973.4    0.00 
  54   10:40   0.60   37.1    88    1.6   101     2.0   973.4    0.00 
  54   10:50   0.64   37.9    85    1.5    93     2.5   973.4    0.00 
  54   11:00   0.71   37.9    87    1.6   122     2.2   973.3    0.00 
  54   11:10   0.72   38.4    88    1.2    94     2.3   973.2    0.00 
  54   11:20   0.60   39.5    82    1.4    72     3.9   973.2    0.00 
  54   11:30   0.72   40.2    82    1.3   117     2.9   973.3    0.00 
  54   11:40   0.72   40.1    80    1.7    92     4.2   973.2    0.00 
  54   11:50   0.70   41.0    80    1.8    55     6.9   973.0    0.00 
  54   12:00   0.54   41.3    66    2.5    68     6.3   972.9    0.00 
  54   12:10   0.66   41.1    70    2.3    66     7.3   972.7    0.00 
  54   12:20   0.72   42.9    71    2.8   323     7.2   972.6    0.00 
  54   12:30   0.72   44.1    62    1.9   332     6.2   972.5    0.00 
  54   12:40   0.73   44.2    63    2.3    26     6.0   972.3    0.00 
  54   12:50   0.72   44.1    62    2.7    37     8.5   972.1    0.00 
  54   13:00   0.73   43.6    63    2.3    26     5.6   972.0    0.00 
  54   13:10   0.72   44.2    64    1.4   129     3.7   972.0    0.00 
  54   13:20   0.67   45.1    63    2.5     4     8.0   971.9    0.00 
  54   13:30   0.73   45.1    58    1.8   358     6.1   971.7    0.00 
  54   13:40   0.72   45.2    59    2.3   314     5.8   971.6    0.00 
  54   13:50   0.64   45.3    62    1.6    96     7.1   971.5    0.00 
  54   14:00   0.37   44.7    68    1.2   313     3.5   971.4    0.00 
  54   14:10   0.39   44.2    62    2.2    26     4.7   971.4    0.00 
  54   14:20   0.62   44.7    62    2.0     9     6.6   971.3    0.00 
  54   14:30   0.61   45.2    61    2.2     8     6.8   971.2    0.00 
  54   14:40   0.58   44.3    64    1.6   321     4.3   971.2    0.00 
  54   14:50   0.34   44.4    60    1.6     9     5.4   971.2    0.00 
  54   15:00   0.42   44.2    62    2.2     4     6.6   971.2    0.00 
  54   15:10   0.40   44.1    65    2.0    18     4.9   971.2    0.00 
  54   15:20   0.12   43.1    65    1.3    36     3.7   971.3    0.00 
  54   15:30   0.05   41.1    76    0.7   317     3.9   971.4    0.00 
  54   15:40   0.05   40.5    71    1.7    17     6.2   971.5    0.00 
  54   15:50   0.04   41.7    64    2.6    32     7.2   971.5    0.00 
  54   16:00   0.04   41.6    63    1.9    19     6.3   971.5    0.00 
  54   16:10   0.05   40.7    72    0.9   258     2.3   971.5    0.00 
  54   16:20   0.04   40.0    76    1.0   158     3.1   971.5    0.00 
  54   16:30   0.03   40.8    69    1.4    45     6.0   971.5    0.00 
  54   16:40   0.03   39.8    77    0.7   248     3.0   971.5    0.00 
  54   16:50   0.02   39.3    79    0.9   305     2.2   971.5    0.00 
  54   17:00   0.01   39.5    74    0.9    57     4.0   971.4    0.00 
  54   17:10   0.01   39.1    79    0.8    31     3.2   971.4    0.00 
  54   17:20   0.01   38.5    82    0.3   298     1.2   971.5    0.00 
  54   17:30   0.01   38.0    86    0.1   328     0.7   971.6    0.00 
  54   17:40   0.01   37.4    87    0.1   346     0.7   971.7    0.00 
  54   17:50   0.01   37.0    89    0.0     0     0.0   971.7    0.00 
  54   18:00   0.00   36.7    90    0.0     0     0.0   971.8    0.00 
  54   18:10   0.00   36.3    92    0.1   153     0.9   971.8    0.00 
  54   18:20   0.00   35.8    93    0.4   168     1.3   971.9    0.00 
  54   18:30   0.00   35.2    94    0.1   155     1.4   971.8    0.00 
  54   18:40   0.00   34.7    96    0.3   161     1.7   971.8    0.00 
  54   18:50   0.00   34.3    96    0.3   168     1.7   971.9    0.00 
  54   19:00   0.00   33.9    97    0.2   141     1.2   971.9    0.00 
  54   19:10   0.00   33.7    97    0.0   172     1.2   972.1    0.00 
  54   19:20   0.00   33.4    97    0.7   167     1.8   972.2    0.00 
  54   19:30   0.00   33.2    98    0.6   158     1.8   972.1    0.00 
  54   19:40   0.00   32.9    98    0.0   175     0.5   972.1    0.00 
  54   19:50   0.00   32.5    98    0.6   158     2.2   972.2    0.00 
  54   20:00   0.00   32.2    98    1.0   160     2.0   972.2    0.00 
  54   20:10   0.00   32.0    98    0.0    15     0.4   972.3    0.00 
  54   20:20   0.00   31.8    98    0.1     2     0.7   972.3    0.00 
  54   20:30   0.00   31.6    98    0.2    27     0.8   972.3    0.00 
  54   20:40   0.00   31.5    98    0.3    59     1.2   972.3    0.00 
  54   20:50   0.00   31.4    98    0.3    37     1.7   972.3    0.00 
  54   21:00   0.00   31.2    99    0.2    29     0.7   972.4    0.00 
  54   21:10   0.00   30.8    99    0.2    25     1.2   972.5    0.00 
  54   21:20   0.00   30.7    99    0.4    38     1.5   972.6    0.00 
  54   21:30   0.00   30.8    99    0.3    66     1.2   972.6    0.00 
  54   21:40   0.00   31.2   100    0.3    83     1.2   972.7    0.00 
  54   21:50   0.00   31.4   100    0.9    92     2.3   972.7    0.00 
  54   22:00   0.00   31.4   100    0.5    71     1.8   972.8    0.00 
  54   22:10   0.00   31.3   100    0.3   147     2.0   972.9    0.00 
  54   22:20   0.00   31.1   100    0.3    55     1.2   972.9    0.00 
  54   22:30   0.00   30.9   100    0.5    63     1.6   973.0    0.00 
  54   22:40   0.00   30.7   100    0.9    57     1.6   973.1    0.00 
  54   22:50   0.00   30.6   100    0.6    77     1.2   973.0    0.00 
  54   23:00   0.00   30.7   100    0.1    81     0.9   973.1    0.00 
  54   23:10   0.00   30.7   100    0.5    44     2.0   973.1    0.00 
  54   23:20   0.00   30.4   100    0.8   101     1.6   973.1    0.00 
  54   23:30   0.00   30.4   100    0.6    50     1.6   973.1    0.00 
  54   23:40   0.00   30.3   100    0.0     0     0.0   973.1    0.00 
  54   23:50   0.00   30.3   100    0.0     0     0.0   973.0    0.00 
  55    0:00   0.00   30.1   100    0.8    61     1.5   973.0    0.00 
  55    0:10   0.00   30.1   100    0.1    35     0.9   973.0    0.00 
  55    0:20   0.00   30.2   100    0.2   297     1.7   973.1    0.00 
  55    0:30   0.00   30.2   100    0.1    66     0.9   973.2    0.00 
  55    0:40   0.00   30.2   100    0.5    28     2.1   973.3    0.00 
  55    0:50   0.00   30.0   100    0.8    54     1.9   973.3    0.00 
  55    1:00   0.00   29.8   100    0.9    58     1.7   973.3    0.00 
  55    1:10   0.00   29.8   100    1.3    50     2.4   973.5    0.00 
  55    1:20   0.00   29.7   100    0.8    44     2.6   973.4    0.00 
  55    1:30   0.00   29.7   100    0.3    72     1.2   973.4    0.00 
  55    1:40   0.00   29.9   100    0.0   338     0.6   973.3    0.00 
  55    1:50   0.00   30.0   100    0.2   250     1.6   973.3    0.00 
  55    2:00   0.00   30.0   100    0.8    75     2.0   973.3    0.00 
  55    2:10   0.00   30.0   100    0.5    56     2.1   973.4    0.00 
  55    2:20   0.00   29.8   100    0.9    84     2.0   973.3    0.00 
  55    2:30   0.00   29.8   100    0.9    45     1.8   973.2    0.00 
  55    2:40   0.00   29.8   100    0.6    59     1.7   973.1    0.00 
  55    2:50   0.00   30.0   100    0.8    72     1.7   973.0    0.00 
  55    3:00   0.00   29.9   100    1.2    50     2.0   972.9    0.00 
  55    3:10   0.00   29.8   100    1.2    54     2.1   972.8    0.00 
  55    3:20   0.00   29.6   100    0.7    58     1.7   972.7    0.00 
  55    3:30   0.00   29.6   100    0.7    50     1.5   972.5    0.00 
  55    3:40   0.00   29.5   100    0.5    60     1.4   972.4    0.00 
  55    3:50   0.00   29.6   100    1.0    50     2.7   972.4    0.00 
  55    4:00   0.00   29.5   100    0.4    89     1.6   972.4    0.00 
  55    4:10   0.00   29.5   100    0.5    45     1.8   972.5    0.00 
  55    4:20   0.00   29.3   100    0.9    33     1.7   972.5    0.00 
  55    4:30   0.00   29.3   100    1.0    53     2.2   972.4    0.00 
  55    4:40   0.00   29.2   100    0.5    90     2.1   972.5    0.00 
  55    4:50   0.00   29.3   100    1.0    32     2.8   972.5    0.00 
  55    5:00   0.00   29.1   100    1.7    39     2.7   972.4    0.00 
  55    5:10   0.00   29.0   100    1.3    72     2.0   972.4    0.00 
  55    5:20   0.00   29.1   100    0.7   355     2.6   972.5    0.00 
  55    5:30   0.00   29.2   100    0.4   327     2.0   972.5    0.00 
  55    5:40   0.00   28.9   100    1.4    61     2.6   972.4    0.00 
  55    5:50   0.00   28.8   100    1.0    43     2.0   972.5    0.00 
  55    6:00   0.00   28.8   100    1.1    47     2.3   972.6    0.00 
  55    6:10   0.00   28.8   100    0.5    36     1.4   972.7    0.00 
  55    6:20   0.00   28.9   100    0.1   121     0.6   972.6    0.00 
  55    6:30   0.00   28.9   100    0.3    32     1.2   972.7    0.00 
  55    6:40   0.00   28.9   100    0.2    55     0.9   972.6    0.00 
  55    6:50   0.00   28.9   100    0.2   126     1.4   972.6    0.00 
  55    7:00   0.00   28.8   100    0.6    29     2.0   972.6    0.00 
  55    7:10   0.01   28.8   100    0.1    29     0.9   972.7    0.00 
  55    7:20   0.01   28.9    99    0.1    43     0.9   972.9    0.00 
  55    7:30   0.03   28.8    99    0.9    23     1.5   972.9    0.00 
  55    7:40   0.03   28.7    99    1.0    42     1.8   973.0    0.00 
  55    7:50   0.03   28.9    99    0.7   348     2.0   973.1    0.00 
  55    8:00   0.04   29.0    98    0.5   358     2.6   973.3    0.00 
  55    8:10   0.06   29.0    98    0.8    16     2.4   973.4    0.00 
  55    8:20   0.07   29.4    98    0.8   303     2.0   973.3    0.00 
  55    8:30   0.07   29.9    98    0.5    15     1.7   973.3    0.00 
  55    8:40   0.07   29.9    97    1.3    75     1.9   973.2    0.00 
  55    8:50   0.08   30.1    97    1.5    86     2.4   973.3    0.00 
  55    9:00   0.07   30.5    96    0.8    83     1.8   973.3    0.00 

Return to Angelo Coast Range Reserve graphs page.


Western Regional Climate Center,wrcc@dri.edu